createdAt,value
2018-10-05T00:00:13.569Z,81.14
2018-10-05T00:02:41.982Z,79.69
2018-10-05T00:05:10.484Z,79.42
2018-10-05T00:07:38.810Z,79.61
2018-10-05T00:10:09.339Z,79.88
2018-10-05T00:12:39.696Z,80.39
2018-10-05T00:15:08.046Z,80.46
2018-10-05T00:17:36.680Z,80.60
2018-10-05T00:20:04.988Z,80.64
2018-10-05T00:22:33.263Z,79.81
2018-10-05T00:25:01.857Z,80.02
2018-10-05T00:27:31.037Z,80.51
2018-10-05T00:29:59.420Z,79.15
2018-10-05T00:32:28.310Z,79.88
2018-10-05T00:34:56.632Z,79.73
2018-10-05T00:37:25.092Z,79.80
2018-10-05T00:39:56.479Z,80.78
2018-10-05T00:42:25.764Z,80.82
2018-10-05T00:44:54.222Z,80.46
2018-10-05T00:47:22.709Z,80.61
2018-10-05T00:49:51.626Z,81.21
2018-10-05T00:52:19.878Z,81.06
2018-10-05T00:54:48.167Z,81.24
2018-10-05T00:57:16.702Z,81.94
2018-10-05T00:59:45.292Z,81.83
2018-10-05T01:02:13.579Z,81.70
2018-10-05T01:04:41.836Z,82.36
2018-10-05T01:07:10.789Z,82.38
2018-10-05T01:09:39.040Z,81.84
2018-10-05T01:12:07.781Z,82.12
2018-10-05T01:14:36.003Z,82.15
2018-10-05T01:17:04.285Z,82.12
2018-10-05T01:19:35.018Z,83.72
2018-10-05T01:22:03.329Z,83.59
2018-10-05T01:24:31.567Z,84.18
2018-10-05T01:26:59.845Z,84.51
2018-10-05T01:29:28.709Z,84.26
2018-10-05T01:31:57.131Z,84.02
2018-10-05T01:34:25.447Z,84.31
2018-10-05T01:36:53.912Z,84.52
2018-10-05T01:39:23.397Z,84.33
2018-10-05T01:41:51.648Z,84.67
2018-10-05T01:44:19.938Z,84.95
2018-10-05T01:46:48.223Z,84.47
2018-10-05T01:49:16.848Z,83.67
2018-10-05T01:51:45.045Z,84.08
2018-10-05T01:54:14.328Z,84.15
2018-10-05T01:56:42.856Z,84.18
2018-10-05T01:59:11.152Z,83.99
2018-10-05T02:01:39.692Z,84.74
2018-10-05T02:04:08.309Z,84.05
2018-10-05T02:06:36.891Z,83.72
2018-10-05T02:09:05.492Z,84.61
2018-10-05T02:11:33.902Z,84.65
2018-10-05T02:14:02.243Z,83.09
2018-10-05T02:16:30.587Z,82.67
2018-10-05T02:18:59.046Z,84.42
2018-10-05T02:21:27.703Z,84.91
2018-10-05T02:23:56.037Z,85.04
2018-10-05T02:26:24.609Z,85.38
2018-10-05T02:28:52.918Z,84.71
2018-10-05T02:31:21.617Z,84.05
2018-10-05T02:33:49.880Z,84.91
2018-10-05T02:36:18.504Z,85.26
2018-10-05T02:38:46.742Z,84.58
2018-10-05T02:41:15.089Z,84.93
2018-10-05T02:43:43.324Z,84.66
2018-10-05T02:46:12.143Z,84.92
2018-10-05T02:48:40.275Z,85.16
2018-10-05T02:51:08.740Z,85.56
2018-10-05T02:53:37.401Z,84.94
2018-10-05T02:56:05.674Z,85.00
2018-10-05T02:58:34.220Z,85.36
2018-10-05T03:01:19.583Z,85.46
2018-10-05T03:03:48.180Z,85.86
2018-10-05T03:06:16.407Z,85.36
2018-10-05T03:08:44.633Z,85.76
2018-10-05T03:11:12.965Z,85.18
2018-10-05T03:13:41.526Z,85.07
2018-10-05T03:16:09.763Z,84.96
2018-10-05T03:18:38.081Z,84.88
2018-10-05T03:21:06.991Z,84.81
2018-10-05T03:23:35.868Z,84.88
2018-10-05T03:26:04.592Z,84.84
2018-10-05T03:28:33.205Z,85.97
2018-10-05T03:31:01.415Z,87.15
2018-10-05T03:33:29.864Z,87.08
2018-10-05T03:35:58.299Z,86.41
2018-10-05T03:38:27.243Z,86.13
2018-10-05T03:40:55.539Z,86.70
2018-10-05T03:43:24.423Z,86.94
2018-10-05T03:45:52.918Z,87.47
2018-10-05T03:48:21.668Z,88.37
2018-10-05T03:50:50.865Z,88.00
2018-10-05T03:53:19.174Z,88.32
2018-10-05T03:55:47.468Z,87.56
2018-10-05T03:58:15.745Z,87.29
2018-10-05T04:00:44.064Z,88.48
2018-10-05T04:03:12.369Z,88.27
2018-10-05T04:05:41.050Z,87.76
2018-10-05T04:08:09.517Z,87.76
2018-10-05T04:10:37.756Z,87.82
2018-10-05T04:13:06.231Z,88.19
2018-10-05T04:15:34.561Z,88.15
2018-10-05T04:18:02.772Z,87.67
2018-10-05T04:20:31.324Z,86.80
2018-10-05T04:22:59.540Z,87.27
2018-10-05T04:25:27.949Z,87.47
2018-10-05T04:27:56.624Z,88.10
2018-10-05T04:30:24.871Z,88.52
2018-10-05T04:32:53.501Z,88.58
2018-10-05T04:35:22.037Z,88.37
2018-10-05T04:37:50.373Z,88.10
2018-10-05T04:40:18.685Z,88.53
2018-10-05T04:42:46.888Z,88.66
2018-10-05T04:45:15.546Z,88.92
2018-10-05T04:47:44.772Z,89.15
2018-10-05T04:50:13.053Z,89.16
2018-10-05T04:52:41.314Z,88.63
2018-10-05T04:55:09.644Z,88.62
2018-10-05T04:57:37.860Z,88.54
2018-10-05T05:00:06.068Z,89.08
2018-10-05T05:02:34.377Z,89.14
2018-10-05T05:05:02.655Z,88.47
2018-10-05T05:07:31.213Z,88.26
2018-10-05T05:09:59.886Z,88.12
2018-10-05T05:12:28.154Z,88.22
2018-10-05T05:14:56.481Z,88.44
2018-10-05T05:17:25.135Z,88.62
2018-10-05T05:19:53.442Z,88.98
2018-10-05T05:22:22.332Z,88.60
2018-10-05T05:24:50.644Z,88.09
2018-10-05T05:27:18.929Z,88.01
2018-10-05T05:29:47.607Z,88.18
2018-10-05T05:32:15.896Z,89.01
2018-10-05T05:34:44.161Z,89.17
2018-10-05T05:37:12.365Z,88.73
2018-10-05T05:39:43.752Z,88.37
2018-10-05T05:42:12.341Z,88.36
2018-10-05T05:44:40.823Z,87.91
2018-10-05T05:47:09.268Z,87.19
2018-10-05T05:49:38.496Z,87.67
2018-10-05T05:52:07.319Z,87.04
2018-10-05T05:54:36.130Z,87.08
2018-10-05T05:57:04.679Z,86.65
2018-10-05T05:59:33.245Z,85.82
2018-10-05T06:02:01.571Z,85.34
2018-10-05T06:04:29.728Z,85.50
2018-10-05T06:06:57.999Z,84.54
2018-10-05T06:09:26.216Z,84.55
2018-10-05T06:11:54.457Z,86.16
2018-10-05T06:14:22.783Z,85.49
2018-10-05T06:16:51.039Z,85.82
2018-10-05T06:19:19.419Z,85.19
2018-10-05T06:21:47.786Z,85.26
2018-10-05T06:24:15.921Z,84.17
2018-10-05T06:26:44.526Z,84.83
2018-10-05T06:29:12.832Z,84.86
2018-10-05T06:31:42.329Z,82.70
2018-10-05T06:34:10.707Z,82.34
2018-10-05T06:36:39.960Z,82.45
2018-10-05T06:39:09.369Z,82.85
2018-10-05T06:41:38.321Z,82.09
2018-10-05T06:44:07.169Z,82.33
2018-10-05T06:46:35.668Z,82.26
2018-10-05T06:49:03.883Z,81.91
2018-10-05T06:51:32.197Z,80.99
2018-10-05T06:54:00.728Z,79.91
2018-10-05T06:56:30.000Z,79.42
2018-10-05T06:58:58.494Z,78.83
2018-10-05T07:01:26.938Z,78.33
2018-10-05T07:03:55.214Z,77.35
2018-10-05T07:06:23.523Z,77.75
2018-10-05T07:08:51.714Z,78.21
2018-10-05T07:11:20.182Z,77.49
2018-10-05T07:13:48.776Z,76.69
2018-10-05T07:16:17.896Z,75.62
2018-10-05T07:18:46.979Z,74.66
2018-10-05T07:21:15.299Z,74.32
2018-10-05T07:23:43.544Z,73.27
2018-10-05T07:26:12.048Z,72.77
2018-10-05T07:28:46.103Z,72.05
2018-10-05T07:31:14.740Z,71.45
2018-10-05T07:33:43.204Z,72.75
2018-10-05T07:36:11.478Z,71.81
2018-10-05T07:38:39.813Z,72.04
2018-10-05T07:41:08.138Z,71.89
2018-10-05T07:46:20.841Z,70.39
2018-10-05T07:48:49.488Z,69.55
2018-10-05T07:51:18.062Z,69.51
2018-10-05T07:53:46.425Z,68.91
2018-10-05T07:56:14.696Z,68.10
2018-10-05T07:58:44.642Z,68.32
2018-10-05T08:01:13.125Z,68.92
2018-10-05T08:03:41.393Z,67.87
2018-10-05T08:06:09.671Z,68.07
2018-10-05T08:08:38.034Z,67.38
2018-10-05T08:11:07.237Z,67.31
2018-10-05T08:13:35.633Z,68.12
2018-10-05T08:16:04.449Z,66.38
2018-10-05T08:18:33.003Z,66.22
2018-10-05T08:21:01.525Z,66.09
2018-10-05T08:23:29.860Z,65.39
2018-10-05T08:25:58.322Z,65.31
2018-10-05T08:28:26.748Z,64.93
2018-10-05T08:30:54.992Z,65.01
2018-10-05T08:33:23.273Z,64.67
2018-10-05T08:35:51.659Z,64.46
2018-10-05T08:38:19.855Z,64.31
2018-10-05T08:40:48.151Z,63.42
2018-10-05T08:43:16.507Z,63.93
2018-10-05T08:45:44.836Z,62.53
2018-10-05T08:48:13.036Z,62.18
2018-10-05T08:50:41.313Z,62.87
2018-10-05T08:53:10.185Z,62.92
2018-10-05T08:55:38.406Z,61.86
2018-10-05T08:58:07.555Z,61.88
2018-10-05T09:00:35.851Z,62.49
2018-10-05T09:03:04.041Z,60.49
2018-10-05T09:05:32.618Z,60.53
2018-10-05T09:08:00.854Z,61.43
2018-10-05T09:10:29.213Z,61.44
2018-10-05T09:12:57.446Z,60.91
2018-10-05T09:15:25.644Z,60.66
2018-10-05T09:17:54.507Z,60.17
2018-10-05T09:20:23.073Z,60.78
2018-10-05T09:22:51.527Z,60.21
2018-10-05T09:25:22.055Z,59.59
2018-10-05T09:27:50.708Z,59.03
2018-10-05T09:30:18.956Z,58.19
2018-10-05T09:32:47.906Z,57.45
2018-10-05T09:35:17.108Z,58.01
2018-10-05T09:37:45.446Z,57.67
2018-10-05T09:40:14.109Z,57.49
2018-10-05T09:42:42.354Z,57.47
2018-10-05T09:45:10.937Z,56.49
2018-10-05T09:47:39.067Z,57.34
2018-10-05T09:50:07.307Z,55.95
2018-10-05T09:52:35.919Z,56.33
2018-10-05T09:55:04.280Z,56.10
2018-10-05T09:57:32.498Z,56.27
2018-10-05T10:00:00.929Z,55.43
2018-10-05T10:02:34.793Z,54.64
2018-10-05T10:05:03.005Z,54.15
2018-10-05T10:07:31.670Z,54.41
2018-10-05T10:10:00.051Z,54.08
2018-10-05T10:12:28.285Z,53.18
2018-10-05T10:14:57.528Z,53.43
2018-10-05T10:17:26.038Z,52.76
2018-10-05T10:19:54.608Z,52.54
2018-10-05T10:22:23.167Z,51.49
2018-10-05T10:24:51.734Z,51.53
2018-10-05T10:27:21.161Z,49.88
2018-10-05T10:29:49.640Z,49.96
2018-10-05T10:32:18.023Z,51.76
2018-10-05T10:34:46.535Z,50.62
2018-10-05T10:37:14.830Z,49.49
2018-10-05T10:39:43.136Z,48.84
2018-10-05T10:42:11.598Z,48.57
2018-10-05T10:44:40.222Z,49.18
2018-10-05T10:47:08.554Z,48.62
2018-10-05T10:49:37.293Z,48.63
2018-10-05T10:52:06.180Z,48.12
2018-10-05T10:54:34.643Z,48.07
2018-10-05T10:57:03.153Z,47.65
2018-10-05T10:59:31.399Z,46.91
2018-10-05T11:01:59.923Z,46.31
2018-10-05T11:04:29.821Z,46.11
2018-10-05T11:06:58.078Z,46.90
2018-10-05T11:09:26.670Z,46.15
2018-10-05T11:11:54.941Z,45.25
2018-10-05T11:14:23.424Z,45.12
2018-10-05T11:16:51.760Z,44.49
2018-10-05T11:19:20.221Z,45.66
2018-10-05T11:21:48.569Z,45.72
2018-10-05T11:24:16.733Z,44.85
2018-10-05T11:26:45.035Z,43.40
2018-10-05T11:29:13.286Z,43.37
2018-10-05T11:31:41.532Z,43.20
2018-10-05T11:34:09.739Z,44.45
2018-10-05T11:36:37.936Z,44.24
2018-10-05T11:39:07.134Z,43.50
2018-10-05T11:41:35.524Z,44.06
2018-10-05T11:44:04.277Z,44.24
2018-10-05T11:46:33.280Z,43.82
2018-10-05T11:49:01.677Z,43.85
2018-10-05T11:51:30.584Z,44.07
2018-10-05T11:53:58.781Z,44.58
2018-10-05T11:56:27.055Z,45.20
2018-10-05T11:58:55.916Z,44.44
2018-10-05T12:01:24.205Z,43.10
2018-10-05T12:03:53.322Z,43.34
2018-10-05T12:06:22.966Z,42.94
2018-10-05T12:08:51.560Z,43.56
2018-10-05T12:11:19.828Z,43.12
2018-10-05T12:13:48.126Z,43.35
2018-10-05T12:16:16.453Z,43.26
2018-10-05T12:18:45.074Z,43.69
2018-10-05T12:21:13.579Z,42.75
2018-10-05T12:23:42.141Z,42.74
2018-10-05T12:26:10.402Z,42.29
2018-10-05T12:28:39.194Z,42.14
2018-10-05T12:31:07.448Z,41.50
2018-10-05T12:33:35.952Z,41.77
2018-10-05T12:36:04.340Z,41.71
2018-10-05T12:38:32.946Z,41.54
2018-10-05T12:41:03.729Z,41.63
2018-10-05T12:43:31.974Z,41.03
2018-10-05T12:46:00.844Z,40.34
2018-10-05T12:48:29.198Z,41.38
2018-10-05T12:50:57.711Z,41.19
2018-10-05T12:53:26.171Z,40.51
2018-10-05T12:55:54.433Z,40.64
2018-10-05T12:58:24.169Z,39.95
2018-10-05T13:00:52.394Z,40.07
2018-10-05T13:03:20.913Z,38.22
2018-10-05T13:05:49.273Z,34.90
2018-10-05T13:08:17.844Z,32.10
2018-10-05T13:10:46.709Z,29.72
2018-10-05T13:13:15.956Z,28.89
2018-10-05T13:15:44.195Z,28.52
2018-10-05T13:18:12.817Z,27.79
2018-10-05T13:20:41.349Z,26.07
2018-10-05T13:23:09.645Z,24.67
2018-10-05T13:25:38.820Z,26.70
2018-10-05T13:28:07.495Z,24.02
2018-10-05T13:30:35.735Z,23.02
2018-10-05T13:33:04.286Z,22.51
2018-10-05T13:35:33.604Z,22.11
2018-10-05T13:38:02.298Z,20.81
2018-10-05T13:40:30.494Z,21.87
2018-10-05T13:42:59.031Z,21.16
2018-10-05T13:45:28.031Z,19.72
2018-10-05T13:48:03.153Z,19.58
2018-10-05T13:50:31.376Z,19.15
2018-10-05T13:52:59.985Z,20.44
2018-10-05T13:55:28.793Z,20.15
2018-10-05T13:57:57.150Z,19.86
2018-10-05T14:00:25.550Z,21.69
2018-10-05T14:02:54.040Z,20.46
2018-10-05T14:05:22.181Z,18.17
2018-10-05T14:07:50.603Z,16.97
2018-10-05T14:10:18.863Z,18.92
2018-10-05T14:12:47.141Z,18.78
2018-10-05T14:15:15.428Z,19.96
2018-10-05T14:17:44.540Z,18.49
2018-10-05T14:20:13.194Z,17.40
2018-10-05T14:22:41.518Z,17.65
2018-10-05T14:25:09.860Z,17.84
2018-10-05T14:27:38.358Z,16.19
2018-10-05T14:30:06.573Z,18.29
2018-10-05T14:32:35.081Z,16.94
2018-10-05T14:35:03.647Z,17.38
2018-10-05T14:37:31.956Z,16.12
2018-10-05T14:40:00.830Z,16.97
2018-10-05T14:42:29.505Z,19.92
2018-10-05T14:44:57.761Z,20.27
2018-10-05T14:47:26.044Z,18.53
2018-10-05T14:49:54.582Z,17.09
2018-10-05T14:52:25.464Z,16.78
2018-10-05T14:54:55.829Z,19.90
2018-10-05T14:57:24.742Z,19.20
2018-10-05T14:59:53.926Z,18.26
2018-10-05T15:02:22.674Z,17.90
2018-10-05T15:04:51.228Z,18.23
2018-10-05T15:07:20.555Z,20.76
2018-10-05T15:09:48.817Z,18.84
2018-10-05T15:12:17.050Z,19.87
2018-10-05T15:14:45.360Z,19.58
2018-10-05T15:17:14.421Z,17.84
2018-10-05T15:19:43.074Z,18.83
2018-10-05T15:22:11.629Z,18.08
2018-10-05T15:24:39.845Z,17.19
2018-10-05T15:27:09.479Z,19.36
2018-10-05T15:29:37.873Z,17.14
2018-10-05T15:32:06.544Z,18.70
2018-10-05T15:34:35.060Z,17.66
2018-10-05T15:37:03.665Z,18.34
2018-10-05T15:39:32.063Z,16.44
2018-10-05T15:42:00.350Z,16.45
2018-10-05T15:44:28.534Z,17.92
2018-10-05T15:47:06.913Z,19.71
2018-10-05T15:49:36.183Z,18.17
2018-10-05T15:52:04.582Z,17.51
2018-10-05T15:54:32.761Z,18.99
2018-10-05T15:57:02.283Z,21.67
2018-10-05T15:59:32.371Z,26.12
2018-10-05T16:02:00.633Z,29.95
2018-10-05T16:04:29.166Z,31.46
2018-10-05T16:06:57.688Z,33.30
2018-10-05T16:09:26.010Z,35.03
2018-10-05T16:11:54.797Z,37.30
2018-10-05T16:14:23.084Z,38.03
2018-10-05T16:16:51.338Z,40.26
2018-10-05T16:19:19.808Z,42.91
2018-10-05T16:21:48.083Z,42.01
2018-10-05T16:24:19.212Z,41.83
2018-10-05T16:26:47.439Z,42.71
2018-10-05T16:29:15.668Z,43.14
2018-10-05T16:31:43.973Z,43.84
2018-10-05T16:34:12.210Z,45.53
2018-10-05T16:36:40.553Z,46.17
2018-10-05T16:39:10.534Z,45.66
2018-10-05T16:41:39.624Z,46.51
2018-10-05T16:44:07.999Z,46.76
2018-10-05T16:46:38.605Z,47.64
2018-10-05T16:49:09.130Z,48.04
2018-10-05T16:54:16.488Z,49.65
2018-10-05T16:56:45.206Z,49.99
2018-10-05T16:59:13.581Z,51.13
2018-10-05T17:01:42.224Z,50.61
2018-10-05T17:04:11.263Z,51.59
2018-10-05T17:06:40.072Z,51.93
2018-10-05T17:09:09.969Z,52.38
2018-10-05T17:11:42.786Z,52.77
2018-10-05T17:14:11.444Z,53.83
2018-10-05T17:16:39.879Z,54.04
2018-10-05T17:19:08.113Z,55.32
2018-10-05T17:21:36.396Z,55.22
2018-10-05T17:24:05.481Z,55.60
2018-10-05T17:26:34.387Z,55.67
2018-10-05T17:29:03.201Z,55.73
2018-10-05T17:31:32.474Z,56.02
2018-10-05T17:34:00.703Z,56.09
2018-10-05T17:36:29.018Z,56.25
2018-10-05T17:38:57.849Z,56.66
2018-10-05T17:41:26.259Z,56.87
2018-10-05T17:43:54.595Z,57.23
2018-10-05T17:46:23.325Z,57.47
2018-10-05T17:48:51.717Z,58.02
2018-10-05T17:51:20.270Z,58.47
2018-10-05T17:53:48.528Z,58.92
2018-10-05T17:56:16.871Z,59.21
2018-10-05T17:58:45.905Z,59.42
2018-10-05T18:01:14.535Z,59.27
2018-10-05T18:03:43.071Z,59.54
2018-10-05T18:06:12.281Z,59.94
2018-10-05T18:08:40.936Z,60.22
2018-10-05T18:11:10.696Z,60.15
2018-10-05T18:13:39.853Z,60.35
2018-10-05T18:16:08.256Z,60.90
2018-10-05T18:18:36.483Z,61.23
2018-10-05T18:21:05.068Z,61.68
2018-10-05T18:23:33.347Z,62.28
2018-10-05T18:26:08.483Z,61.79
2018-10-05T18:28:36.719Z,62.38
2018-10-05T18:31:05.381Z,62.30
2018-10-05T18:33:34.623Z,63.39
2018-10-05T18:36:03.250Z,63.65
2018-10-05T18:38:31.532Z,63.98
2018-10-05T18:41:00.010Z,64.52
2018-10-05T18:43:28.254Z,64.76
2018-10-05T18:45:56.399Z,65.71
2018-10-05T18:48:24.946Z,65.88
2018-10-05T18:50:53.226Z,65.95
2018-10-05T18:53:21.555Z,66.82
2018-10-05T18:55:50.117Z,67.37
2018-10-05T18:58:18.397Z,67.86
2018-10-05T19:00:46.645Z,68.52
2018-10-05T19:03:14.925Z,68.65
2018-10-05T19:05:43.557Z,67.93
2018-10-05T19:08:12.713Z,67.37
2018-10-05T19:10:41.058Z,67.35
2018-10-05T19:13:10.283Z,67.82
2018-10-05T19:15:38.630Z,67.79
2018-10-05T19:18:06.932Z,69.19
2018-10-05T19:20:35.310Z,70.84
2018-10-05T19:23:03.587Z,69.57
2018-10-05T19:25:31.964Z,71.75
2018-10-05T19:28:00.210Z,70.82
2018-10-05T19:30:29.176Z,70.49
2018-10-05T19:32:58.055Z,69.57
2018-10-05T19:35:27.013Z,68.90
2018-10-05T19:37:55.325Z,69.75
2018-10-05T19:40:24.221Z,70.36
2018-10-05T19:42:53.043Z,70.59
2018-10-05T19:45:21.369Z,69.84
2018-10-05T19:47:49.693Z,69.47
2018-10-05T19:50:18.014Z,70.07
2018-10-05T19:52:46.244Z,70.01
2018-10-05T19:55:21.419Z,69.99
2018-10-05T19:57:49.650Z,70.82
2018-10-05T20:00:17.901Z,71.82
2018-10-05T20:02:46.104Z,72.02
2018-10-05T20:05:14.676Z,71.60
2018-10-05T20:07:43.057Z,72.19
2018-10-05T20:10:11.624Z,72.19
2018-10-05T20:12:40.792Z,72.24
2018-10-05T20:15:09.249Z,72.59
2018-10-05T20:17:37.742Z,72.22
2018-10-05T20:20:06.730Z,72.51
2018-10-05T20:22:35.370Z,72.31
2018-10-05T20:25:03.706Z,73.11
2018-10-05T20:27:32.137Z,74.20
2018-10-05T20:30:00.783Z,74.37
2018-10-05T20:32:29.347Z,74.63
2018-10-05T20:34:57.782Z,74.45
2018-10-05T20:37:27.230Z,74.97
2018-10-05T20:39:55.377Z,75.42
2018-10-05T20:42:23.589Z,76.05
2018-10-05T20:44:52.540Z,76.10
2018-10-05T20:47:20.895Z,76.29
2018-10-05T20:49:49.138Z,76.05
2018-10-05T20:52:17.395Z,75.93
2018-10-05T20:54:45.705Z,76.13
2018-10-05T20:57:14.940Z,75.62
2018-10-05T20:59:43.735Z,75.87
2018-10-05T21:02:12.016Z,75.96
2018-10-05T21:04:40.219Z,76.93
2018-10-05T21:07:08.437Z,76.36
2018-10-05T21:09:37.151Z,76.36
2018-10-05T21:12:05.411Z,76.27
2018-10-05T21:14:34.355Z,76.88
2018-10-05T21:17:02.935Z,76.56
2018-10-05T21:19:31.164Z,77.33
2018-10-05T21:21:59.521Z,77.60
2018-10-05T21:24:27.772Z,76.87
2018-10-05T21:26:56.385Z,76.92
2018-10-05T21:29:24.589Z,76.69
2018-10-05T21:31:53.073Z,77.25
2018-10-05T21:34:21.588Z,77.34
2018-10-05T21:36:49.772Z,76.91
2018-10-05T21:39:18.091Z,77.83
2018-10-05T21:41:46.683Z,77.65
2018-10-05T21:44:15.312Z,77.72
2018-10-05T21:46:44.581Z,78.41
2018-10-05T21:49:13.108Z,79.07
2018-10-05T21:51:41.350Z,78.74
2018-10-05T21:54:09.911Z,78.61
2018-10-05T21:56:38.512Z,78.59
2018-10-05T21:59:07.217Z,78.39
2018-10-05T22:01:36.121Z,78.13
2018-10-05T22:04:04.371Z,78.94
2018-10-05T22:06:33.304Z,78.55
2018-10-05T22:09:01.538Z,78.19
2018-10-05T22:11:30.098Z,78.63
2018-10-05T22:13:58.436Z,78.74
2018-10-05T22:16:27.261Z,78.69
2018-10-05T22:18:55.732Z,78.84
2018-10-05T22:21:24.639Z,79.67
2018-10-05T22:23:52.878Z,79.82
2018-10-05T22:26:21.084Z,79.29
2018-10-05T22:28:49.609Z,79.78
2018-10-05T22:31:17.865Z,80.13
2018-10-05T22:33:46.569Z,79.46
2018-10-05T22:36:14.931Z,80.42
2018-10-05T22:38:43.351Z,80.76
2018-10-05T22:41:11.919Z,81.68
2018-10-05T22:43:40.142Z,81.88
2018-10-05T22:46:08.937Z,81.76
2018-10-05T22:48:38.239Z,82.06
2018-10-05T22:51:06.585Z,82.13
2018-10-05T22:53:35.154Z,82.29
2018-10-05T22:56:03.713Z,82.00
2018-10-05T22:58:32.165Z,81.38
2018-10-05T23:01:00.501Z,81.88
2018-10-05T23:03:28.993Z,82.30
2018-10-05T23:05:57.638Z,82.61
2018-10-05T23:08:26.292Z,82.36
2018-10-05T23:10:54.896Z,83.03
2018-10-05T23:13:23.159Z,82.89
2018-10-05T23:15:51.421Z,82.80
2018-10-05T23:18:19.661Z,83.41
2018-10-05T23:20:47.929Z,83.73
2018-10-05T23:23:16.196Z,84.31
2018-10-05T23:25:45.065Z,84.12
2018-10-05T23:28:13.672Z,84.55
2018-10-05T23:30:42.390Z,84.33
2018-10-05T23:33:10.572Z,85.07
2018-10-05T23:35:38.806Z,84.97
2018-10-05T23:38:07.195Z,85.75
2018-10-05T23:40:35.621Z,84.90
2018-10-05T23:43:04.556Z,84.26
2018-10-05T23:45:32.858Z,83.94
2018-10-05T23:48:01.798Z,84.56
2018-10-05T23:50:30.056Z,84.56
2018-10-05T23:52:58.800Z,84.72
2018-10-05T23:55:27.140Z,84.41
2018-10-05T23:57:55.344Z,84.02
